Terminal Aerodrome Forecast
Issued by NWS Buffalo, NY

Home | Current Version | Previous Version | Text Only | Print | Product List | Glossary On
Versions: 1 2 3 4 5 6 7 8 9 10 11 12 13 14 15 16 17 18 19 20 21 22 23
362
FTUS41 KBUF 250535
TAFROC
TAF
KROC 250535Z 2506/2606 24008KT P6SM FEW180 SCT250
     FM251500 26011G19KT P6SM BKN080
     FM252100 27013G21KT P6SM BKN080
     FM252300 26009KT P6SM BKN080
     FM260000 26007KT P6SM SCT070=

USA.gov is the U.S. government's official web portal to all federal, state and local government web resources and services.